sensor_id;sensor_type;location;lat;lon;timestamp;P1;durP1;ratioP1;P2;durP2;ratioP2
37529;SDS011;23374;52.758;6.872;2023-12-20T00:00:59;12.33;;;1.20;;
37529;SDS011;23374;52.758;6.872;2023-12-20T00:03:20;9.90;;;1.33;;
37529;SDS011;23374;52.758;6.872;2023-12-20T00:05:40;10.10;;;1.43;;
37529;SDS011;23374;52.758;6.872;2023-12-20T00:08:01;8.87;;;1.47;;
37529;SDS011;23374;52.758;6.872;2023-12-20T00:10:22;5.60;;;1.10;;
37529;SDS011;23374;52.758;6.872;2023-12-20T00:12:42;3.20;;;0.87;;
37529;SDS011;23374;52.758;6.872;2023-12-20T00:15:03;7.40;;;1.60;;
37529;SDS011;23374;52.758;6.872;2023-12-20T00:17:24;1.63;;;0.80;;
37529;SDS011;23374;52.758;6.872;2023-12-20T00:19:44;7.17;;;1.07;;
37529;SDS011;23374;52.758;6.872;2023-12-20T00:22:05;8.03;;;1.30;;
37529;SDS011;23374;52.758;6.872;2023-12-20T00:24:25;11.30;;;1.30;;
37529;SDS011;23374;52.758;6.872;2023-12-20T00:26:45;10.93;;;1.60;;
37529;SDS011;23374;52.758;6.872;2023-12-20T00:29:06;7.23;;;0.83;;
37529;SDS011;23374;52.758;6.872;2023-12-20T00:31:27;2.67;;;0.80;;
37529;SDS011;23374;52.758;6.872;2023-12-20T00:33:48;15.73;;;1.33;;
37529;SDS011;23374;52.758;6.872;2023-12-20T00:36:09;9.03;;;1.23;;
37529;SDS011;23374;52.758;6.872;2023-12-20T00:38:29;8.13;;;0.97;;
37529;SDS011;23374;52.758;6.872;2023-12-20T00:40:50;6.03;;;1.10;;
37529;SDS011;23374;52.758;6.872;2023-12-20T00:43:10;5.63;;;1.30;;
37529;SDS011;23374;52.758;6.872;2023-12-20T00:45:31;6.57;;;1.10;;
37529;SDS011;23374;52.758;6.872;2023-12-20T00:47:52;7.67;;;1.23;;
37529;SDS011;23374;52.758;6.872;2023-12-20T00:50:12;7.87;;;1.33;;
37529;SDS011;23374;52.758;6.872;2023-12-20T00:52:32;13.33;;;1.20;;
37529;SDS011;23374;52.758;6.872;2023-12-20T00:54:53;6.80;;;1.10;;
37529;SDS011;23374;52.758;6.872;2023-12-20T00:57:14;5.70;;;1.40;;
37529;SDS011;23374;52.758;6.872;2023-12-20T00:59:34;18.17;;;1.30;;
37529;SDS011;23374;52.758;6.872;2023-12-20T01:01:55;1.93;;;0.60;;
37529;SDS011;23374;52.758;6.872;2023-12-20T01:04:15;6.83;;;1.20;;
37529;SDS011;23374;52.758;6.872;2023-12-20T01:06:36;9.90;;;1.90;;
37529;SDS011;23374;52.758;6.872;2023-12-20T01:08:56;10.80;;;1.47;;
37529;SDS011;23374;52.758;6.872;2023-12-20T01:11:17;3.70;;;0.93;;
37529;SDS011;23374;52.758;6.872;2023-12-20T01:13:37;6.17;;;1.43;;
37529;SDS011;23374;52.758;6.872;2023-12-20T01:15:57;4.50;;;0.93;;
37529;SDS011;23374;52.758;6.872;2023-12-20T01:18:18;18.83;;;1.97;;
37529;SDS011;23374;52.758;6.872;2023-12-20T01:20:38;20.07;;;2.37;;
37529;SDS011;23374;52.758;6.872;2023-12-20T01:22:58;8.37;;;1.23;;
37529;SDS011;23374;52.758;6.872;2023-12-20T01:25:18;11.83;;;1.17;;
37529;SDS011;23374;52.758;6.872;2023-12-20T01:27:38;5.07;;;1.20;;
37529;SDS011;23374;52.758;6.872;2023-12-20T01:29:59;7.73;;;1.00;;
37529;SDS011;23374;52.758;6.872;2023-12-20T01:32:19;10.30;;;2.00;;
37529;SDS011;23374;52.758;6.872;2023-12-20T01:34:39;5.43;;;1.37;;
37529;SDS011;23374;52.758;6.872;2023-12-20T01:37:00;8.40;;;1.10;;
37529;SDS011;23374;52.758;6.872;2023-12-20T01:39:21;14.17;;;2.10;;
37529;SDS011;23374;52.758;6.872;2023-12-20T01:41:41;7.30;;;1.40;;
37529;SDS011;23374;52.758;6.872;2023-12-20T01:44:01;8.53;;;1.57;;
37529;SDS011;23374;52.758;6.872;2023-12-20T01:46:22;7.53;;;1.57;;
37529;SDS011;23374;52.758;6.872;2023-12-20T01:48:42;15.00;;;1.90;;
37529;SDS011;23374;52.758;6.872;2023-12-20T01:51:03;13.87;;;1.50;;
37529;SDS011;23374;52.758;6.872;2023-12-20T01:53:25;12.70;;;1.77;;
37529;SDS011;23374;52.758;6.872;2023-12-20T01:55:46;6.03;;;1.37;;
37529;SDS011;23374;52.758;6.872;2023-12-20T01:58:10;7.83;;;1.50;;
37529;SDS011;23374;52.758;6.872;2023-12-20T02:00:32;5.27;;;1.47;;
37529;SDS011;23374;52.758;6.872;2023-12-20T02:02:53;10.03;;;1.33;;
37529;SDS011;23374;52.758;6.872;2023-12-20T02:05:17;12.47;;;1.93;;
37529;SDS011;23374;52.758;6.872;2023-12-20T02:07:37;8.13;;;1.27;;
37529;SDS011;23374;52.758;6.872;2023-12-20T02:09:58;7.13;;;1.30;;
37529;SDS011;23374;52.758;6.872;2023-12-20T02:12:18;10.73;;;1.23;;
37529;SDS011;23374;52.758;6.872;2023-12-20T02:14:39;11.50;;;1.37;;
37529;SDS011;23374;52.758;6.872;2023-12-20T02:17:00;7.67;;;1.40;;
37529;SDS011;23374;52.758;6.872;2023-12-20T02:19:20;8.47;;;1.53;;
37529;SDS011;23374;52.758;6.872;2023-12-20T02:21:41;6.10;;;1.40;;
37529;SDS011;23374;52.758;6.872;2023-12-20T02:24:01;11.87;;;1.67;;
37529;SDS011;23374;52.758;6.872;2023-12-20T02:26:21;11.40;;;1.83;;
37529;SDS011;23374;52.758;6.872;2023-12-20T02:28:41;12.10;;;1.50;;
37529;SDS011;23374;52.758;6.872;2023-12-20T02:31:02;6.13;;;1.60;;
37529;SDS011;23374;52.758;6.872;2023-12-20T02:33:22;21.57;;;2.10;;
37529;SDS011;23374;52.758;6.872;2023-12-20T02:35:43;2.67;;;0.90;;
37529;SDS011;23374;52.758;6.872;2023-12-20T02:38:03;8.40;;;1.73;;
37529;SDS011;23374;52.758;6.872;2023-12-20T02:40:24;2.47;;;1.37;;
37529;SDS011;23374;52.758;6.872;2023-12-20T02:42:44;9.67;;;1.27;;
37529;SDS011;23374;52.758;6.872;2023-12-20T02:45:05;12.27;;;1.73;;
37529;SDS011;23374;52.758;6.872;2023-12-20T02:47:27;11.37;;;1.70;;
37529;SDS011;23374;52.758;6.872;2023-12-20T02:49:49;8.63;;;1.57;;
37529;SDS011;23374;52.758;6.872;2023-12-20T02:52:09;5.60;;;1.63;;
37529;SDS011;23374;52.758;6.872;2023-12-20T02:54:30;8.27;;;1.37;;
37529;SDS011;23374;52.758;6.872;2023-12-20T02:56:50;4.00;;;1.30;;
37529;SDS011;23374;52.758;6.872;2023-12-20T02:59:10;11.80;;;1.83;;
37529;SDS011;23374;52.758;6.872;2023-12-20T03:01:30;8.57;;;1.33;;
37529;SDS011;23374;52.758;6.872;2023-12-20T03:03:51;4.67;;;1.20;;
37529;SDS011;23374;52.758;6.872;2023-12-20T03:06:11;5.67;;;1.57;;
37529;SDS011;23374;52.758;6.872;2023-12-20T03:08:35;15.37;;;1.93;;
37529;SDS011;23374;52.758;6.872;2023-12-20T03:10:56;7.20;;;1.33;;
37529;SDS011;23374;52.758;6.872;2023-12-20T03:13:19;7.77;;;1.90;;
37529;SDS011;23374;52.758;6.872;2023-12-20T03:15:40;9.20;;;1.63;;
37529;SDS011;23374;52.758;6.872;2023-12-20T03:18:01;8.10;;;1.40;;
37529;SDS011;23374;52.758;6.872;2023-12-20T03:20:21;7.27;;;1.57;;
37529;SDS011;23374;52.758;6.872;2023-12-20T03:22:41;8.67;;;1.70;;
37529;SDS011;23374;52.758;6.872;2023-12-20T03:25:02;5.03;;;1.20;;
37529;SDS011;23374;52.758;6.872;2023-12-20T03:27:22;18.30;;;2.03;;
37529;SDS011;23374;52.758;6.872;2023-12-20T03:29:42;10.43;;;1.57;;
37529;SDS011;23374;52.758;6.872;2023-12-20T03:32:03;9.93;;;1.10;;
37529;SDS011;23374;52.758;6.872;2023-12-20T03:34:24;17.47;;;2.20;;
37529;SDS011;23374;52.758;6.872;2023-12-20T03:36:44;6.57;;;1.77;;
37529;SDS011;23374;52.758;6.872;2023-12-20T03:39:07;11.37;;;1.83;;
37529;SDS011;23374;52.758;6.872;2023-12-20T03:41:27;7.93;;;1.83;;
37529;SDS011;23374;52.758;6.872;2023-12-20T03:43:47;11.90;;;2.23;;
37529;SDS011;23374;52.758;6.872;2023-12-20T03:46:08;6.60;;;1.70;;
37529;SDS011;23374;52.758;6.872;2023-12-20T03:48:29;12.40;;;2.20;;
37529;SDS011;23374;52.758;6.872;2023-12-20T03:50:50;14.67;;;2.27;;
37529;SDS011;23374;52.758;6.872;2023-12-20T03:53:11;12.37;;;2.30;;
37529;SDS011;23374;52.758;6.872;2023-12-20T03:55:31;10.80;;;1.73;;
37529;SDS011;23374;52.758;6.872;2023-12-20T03:57:51;18.27;;;2.30;;
37529;SDS011;23374;52.758;6.872;2023-12-20T04:00:13;11.67;;;2.10;;
37529;SDS011;23374;52.758;6.872;2023-12-20T04:02:33;14.10;;;1.97;;
37529;SDS011;23374;52.758;6.872;2023-12-20T04:04:53;14.03;;;2.30;;
37529;SDS011;23374;52.758;6.872;2023-12-20T04:07:14;19.93;;;1.97;;
37529;SDS011;23374;52.758;6.872;2023-12-20T04:09:34;14.30;;;2.27;;
37529;SDS011;23374;52.758;6.872;2023-12-20T04:11:55;10.30;;;2.23;;
37529;SDS011;23374;52.758;6.872;2023-12-20T04:14:15;11.53;;;2.30;;
37529;SDS011;23374;52.758;6.872;2023-12-20T04:16:35;7.70;;;2.00;;
37529;SDS011;23374;52.758;6.872;2023-12-20T04:18:56;12.33;;;2.00;;
37529;SDS011;23374;52.758;6.872;2023-12-20T04:21:16;11.13;;;1.90;;
37529;SDS011;23374;52.758;6.872;2023-12-20T04:23:37;17.80;;;2.30;;
37529;SDS011;23374;52.758;6.872;2023-12-20T04:25:57;27.83;;;3.00;;
37529;SDS011;23374;52.758;6.872;2023-12-20T04:28:18;8.87;;;2.20;;
37529;SDS011;23374;52.758;6.872;2023-12-20T04:30:38;14.40;;;2.10;;
37529;SDS011;23374;52.758;6.872;2023-12-20T04:32:58;20.00;;;2.33;;
37529;SDS011;23374;52.758;6.872;2023-12-20T04:35:18;8.30;;;2.50;;
37529;SDS011;23374;52.758;6.872;2023-12-20T04:37:38;19.27;;;2.67;;
37529;SDS011;23374;52.758;6.872;2023-12-20T04:39:58;10.87;;;2.73;;
37529;SDS011;23374;52.758;6.872;2023-12-20T04:42:19;15.20;;;2.53;;
37529;SDS011;23374;52.758;6.872;2023-12-20T04:44:39;11.93;;;2.13;;
37529;SDS011;23374;52.758;6.872;2023-12-20T04:46:59;11.83;;;2.20;;
37529;SDS011;23374;52.758;6.872;2023-12-20T04:49:20;10.30;;;2.23;;
37529;SDS011;23374;52.758;6.872;2023-12-20T04:51:40;17.77;;;2.00;;
37529;SDS011;23374;52.758;6.872;2023-12-20T04:54:01;17.60;;;2.50;;
37529;SDS011;23374;52.758;6.872;2023-12-20T04:56:21;21.17;;;2.40;;
37529;SDS011;23374;52.758;6.872;2023-12-20T04:58:44;17.77;;;2.80;;
37529;SDS011;23374;52.758;6.872;2023-12-20T05:01:08;16.03;;;2.10;;
37529;SDS011;23374;52.758;6.872;2023-12-20T05:03:28;9.17;;;2.47;;
37529;SDS011;23374;52.758;6.872;2023-12-20T05:05:48;17.33;;;2.57;;
37529;SDS011;23374;52.758;6.872;2023-12-20T05:08:09;22.73;;;2.73;;
37529;SDS011;23374;52.758;6.872;2023-12-20T05:10:29;6.03;;;2.07;;
37529;SDS011;23374;52.758;6.872;2023-12-20T05:12:49;8.63;;;2.23;;
37529;SDS011;23374;52.758;6.872;2023-12-20T05:15:09;9.77;;;2.53;;
37529;SDS011;23374;52.758;6.872;2023-12-20T05:17:29;22.90;;;2.03;;
37529;SDS011;23374;52.758;6.872;2023-12-20T05:19:50;11.93;;;2.53;;
37529;SDS011;23374;52.758;6.872;2023-12-20T05:22:10;12.93;;;2.40;;
37529;SDS011;23374;52.758;6.872;2023-12-20T05:24:30;15.60;;;3.50;;
37529;SDS011;23374;52.758;6.872;2023-12-20T05:26:50;23.07;;;2.60;;
37529;SDS011;23374;52.758;6.872;2023-12-20T05:29:11;15.80;;;2.00;;
37529;SDS011;23374;52.758;6.872;2023-12-20T05:31:31;17.80;;;2.73;;
37529;SDS011;23374;52.758;6.872;2023-12-20T05:33:52;22.07;;;2.57;;
37529;SDS011;23374;52.758;6.872;2023-12-20T05:36:12;15.03;;;2.20;;
37529;SDS011;23374;52.758;6.872;2023-12-20T05:38:34;16.07;;;3.27;;
37529;SDS011;23374;52.758;6.872;2023-12-20T05:40:54;10.50;;;2.60;;
37529;SDS011;23374;52.758;6.872;2023-12-20T05:43:14;9.77;;;2.67;;
37529;SDS011;23374;52.758;6.872;2023-12-20T05:45:35;15.83;;;2.00;;
37529;SDS011;23374;52.758;6.872;2023-12-20T05:47:56;10.73;;;1.90;;
37529;SDS011;23374;52.758;6.872;2023-12-20T05:50:16;10.97;;;2.10;;
37529;SDS011;23374;52.758;6.872;2023-12-20T05:52:37;11.80;;;2.40;;
37529;SDS011;23374;52.758;6.872;2023-12-20T05:54:57;8.03;;;2.60;;
37529;SDS011;23374;52.758;6.872;2023-12-20T05:57:21;15.57;;;2.73;;
37529;SDS011;23374;52.758;6.872;2023-12-20T05:59:41;11.80;;;2.00;;
37529;SDS011;23374;52.758;6.872;2023-12-20T06:02:03;15.30;;;2.70;;
37529;SDS011;23374;52.758;6.872;2023-12-20T06:04:24;19.73;;;2.60;;
37529;SDS011;23374;52.758;6.872;2023-12-20T06:06:44;14.77;;;2.27;;
37529;SDS011;23374;52.758;6.872;2023-12-20T06:09:04;6.13;;;2.33;;
37529;SDS011;23374;52.758;6.872;2023-12-20T06:11:26;15.87;;;2.17;;
37529;SDS011;23374;52.758;6.872;2023-12-20T06:13:47;14.50;;;2.47;;
37529;SDS011;23374;52.758;6.872;2023-12-20T06:16:08;13.23;;;2.27;;
37529;SDS011;23374;52.758;6.872;2023-12-20T06:18:28;19.53;;;3.33;;
37529;SDS011;23374;52.758;6.872;2023-12-20T06:20:49;19.63;;;2.87;;
37529;SDS011;23374;52.758;6.872;2023-12-20T06:23:09;11.37;;;2.37;;
37529;SDS011;23374;52.758;6.872;2023-12-20T06:25:29;8.47;;;2.00;;
37529;SDS011;23374;52.758;6.872;2023-12-20T06:27:49;9.70;;;2.13;;
37529;SDS011;23374;52.758;6.872;2023-12-20T06:30:10;10.70;;;2.03;;
37529;SDS011;23374;52.758;6.872;2023-12-20T06:32:31;11.83;;;2.00;;
37529;SDS011;23374;52.758;6.872;2023-12-20T06:34:51;8.97;;;2.47;;
37529;SDS011;23374;52.758;6.872;2023-12-20T06:37:11;17.27;;;2.17;;
37529;SDS011;23374;52.758;6.872;2023-12-20T06:39:31;12.23;;;2.10;;
37529;SDS011;23374;52.758;6.872;2023-12-20T06:41:53;14.27;;;2.07;;
37529;SDS011;23374;52.758;6.872;2023-12-20T06:44:13;4.20;;;1.20;;
37529;SDS011;23374;52.758;6.872;2023-12-20T06:46:34;8.50;;;2.13;;
37529;SDS011;23374;52.758;6.872;2023-12-20T06:48:54;17.23;;;3.17;;
37529;SDS011;23374;52.758;6.872;2023-12-20T06:51:15;9.70;;;2.30;;
37529;SDS011;23374;52.758;6.872;2023-12-20T06:53:37;12.63;;;1.87;;
37529;SDS011;23374;52.758;6.872;2023-12-20T06:55:57;5.13;;;2.10;;
37529;SDS011;23374;52.758;6.872;2023-12-20T06:58:17;9.93;;;2.47;;
37529;SDS011;23374;52.758;6.872;2023-12-20T07:00:37;16.50;;;2.57;;
37529;SDS011;23374;52.758;6.872;2023-12-20T07:02:57;13.87;;;2.43;;
37529;SDS011;23374;52.758;6.872;2023-12-20T07:05:18;9.57;;;2.50;;
37529;SDS011;23374;52.758;6.872;2023-12-20T07:07:39;10.37;;;1.70;;
37529;SDS011;23374;52.758;6.872;2023-12-20T07:09:59;8.03;;;2.17;;
37529;SDS011;23374;52.758;6.872;2023-12-20T07:12:20;8.10;;;1.50;;
37529;SDS011;23374;52.758;6.872;2023-12-20T07:14:40;9.20;;;1.60;;
37529;SDS011;23374;52.758;6.872;2023-12-20T07:17:00;9.53;;;2.10;;
37529;SDS011;23374;52.758;6.872;2023-12-20T07:19:21;13.57;;;2.43;;
37529;SDS011;23374;52.758;6.872;2023-12-20T07:21:41;6.77;;;1.67;;
37529;SDS011;23374;52.758;6.872;2023-12-20T07:24:01;9.93;;;1.83;;
37529;SDS011;23374;52.758;6.872;2023-12-20T07:26:22;16.70;;;1.90;;
37529;SDS011;23374;52.758;6.872;2023-12-20T07:28:43;15.87;;;2.13;;
37529;SDS011;23374;52.758;6.872;2023-12-20T07:31:03;11.37;;;1.60;;
37529;SDS011;23374;52.758;6.872;2023-12-20T07:33:24;11.03;;;2.17;;
37529;SDS011;23374;52.758;6.872;2023-12-20T07:35:44;11.00;;;2.27;;
37529;SDS011;23374;52.758;6.872;2023-12-20T07:38:04;6.63;;;2.10;;
37529;SDS011;23374;52.758;6.872;2023-12-20T07:40:26;16.80;;;2.17;;
37529;SDS011;23374;52.758;6.872;2023-12-20T07:42:46;11.77;;;2.03;;
37529;SDS011;23374;52.758;6.872;2023-12-20T07:45:06;11.93;;;2.20;;
37529;SDS011;23374;52.758;6.872;2023-12-20T07:47:27;7.97;;;1.93;;
37529;SDS011;23374;52.758;6.872;2023-12-20T07:49:48;12.97;;;2.43;;
37529;SDS011;23374;52.758;6.872;2023-12-20T07:52:09;17.47;;;2.10;;
37529;SDS011;23374;52.758;6.872;2023-12-20T07:54:29;9.73;;;2.10;;
37529;SDS011;23374;52.758;6.872;2023-12-20T07:56:50;12.17;;;1.63;;
37529;SDS011;23374;52.758;6.872;2023-12-20T07:59:10;13.90;;;2.83;;
37529;SDS011;23374;52.758;6.872;2023-12-20T08:01:30;13.93;;;2.67;;
37529;SDS011;23374;52.758;6.872;2023-12-20T08:03:51;9.63;;;1.63;;
37529;SDS011;23374;52.758;6.872;2023-12-20T08:06:11;11.00;;;1.53;;
37529;SDS011;23374;52.758;6.872;2023-12-20T08:08:32;9.70;;;2.00;;
37529;SDS011;23374;52.758;6.872;2023-12-20T08:10:52;14.77;;;1.73;;
37529;SDS011;23374;52.758;6.872;2023-12-20T08:13:12;17.27;;;1.80;;
37529;SDS011;23374;52.758;6.872;2023-12-20T08:15:32;15.70;;;2.47;;
37529;SDS011;23374;52.758;6.872;2023-12-20T08:17:53;11.27;;;2.00;;
37529;SDS011;23374;52.758;6.872;2023-12-20T08:20:13;5.53;;;1.73;;
37529;SDS011;23374;52.758;6.872;2023-12-20T08:22:33;12.93;;;2.43;;
37529;SDS011;23374;52.758;6.872;2023-12-20T08:24:53;13.87;;;2.53;;
37529;SDS011;23374;52.758;6.872;2023-12-20T08:27:14;8.83;;;1.77;;
37529;SDS011;23374;52.758;6.872;2023-12-20T08:29:34;10.87;;;1.87;;
37529;SDS011;23374;52.758;6.872;2023-12-20T08:31:55;12.97;;;2.33;;
37529;SDS011;23374;52.758;6.872;2023-12-20T08:34:16;13.73;;;2.03;;
37529;SDS011;23374;52.758;6.872;2023-12-20T08:36:37;5.50;;;1.57;;
37529;SDS011;23374;52.758;6.872;2023-12-20T08:38:57;14.77;;;1.93;;
37529;SDS011;23374;52.758;6.872;2023-12-20T08:41:18;19.57;;;2.83;;
37529;SDS011;23374;52.758;6.872;2023-12-20T08:43:38;17.03;;;2.83;;
37529;SDS011;23374;52.758;6.872;2023-12-20T08:46:02;9.70;;;2.00;;
37529;SDS011;23374;52.758;6.872;2023-12-20T08:48:23;8.67;;;1.70;;
37529;SDS011;23374;52.758;6.872;2023-12-20T08:50:43;9.93;;;2.33;;
37529;SDS011;23374;52.758;6.872;2023-12-20T08:53:03;8.03;;;2.20;;
37529;SDS011;23374;52.758;6.872;2023-12-20T08:55:23;9.60;;;1.80;;
37529;SDS011;23374;52.758;6.872;2023-12-20T08:57:44;8.40;;;2.30;;
37529;SDS011;23374;52.758;6.872;2023-12-20T09:00:05;10.60;;;2.17;;
37529;SDS011;23374;52.758;6.872;2023-12-20T09:02:27;20.90;;;2.63;;
37529;SDS011;23374;52.758;6.872;2023-12-20T09:04:48;11.60;;;2.03;;
37529;SDS011;23374;52.758;6.872;2023-12-20T09:07:25;9.70;;;2.63;;
37529;SDS011;23374;52.758;6.872;2023-12-20T09:09:47;11.50;;;1.73;;
37529;SDS011;23374;52.758;6.872;2023-12-20T09:12:08;9.27;;;2.03;;
37529;SDS011;23374;52.758;6.872;2023-12-20T09:14:28;9.47;;;2.03;;
37529;SDS011;23374;52.758;6.872;2023-12-20T09:16:48;18.97;;;2.70;;
37529;SDS011;23374;52.758;6.872;2023-12-20T09:19:10;17.73;;;2.97;;
37529;SDS011;23374;52.758;6.872;2023-12-20T09:21:30;18.20;;;2.80;;
37529;SDS011;23374;52.758;6.872;2023-12-20T09:23:50;16.33;;;2.47;;
37529;SDS011;23374;52.758;6.872;2023-12-20T09:26:11;13.27;;;2.47;;
37529;SDS011;23374;52.758;6.872;2023-12-20T09:28:31;7.73;;;2.20;;
37529;SDS011;23374;52.758;6.872;2023-12-20T09:30:56;7.23;;;2.03;;
37529;SDS011;23374;52.758;6.872;2023-12-20T09:33:17;10.37;;;1.77;;
37529;SDS011;23374;52.758;6.872;2023-12-20T09:35:37;8.87;;;2.00;;
37529;SDS011;23374;52.758;6.872;2023-12-20T09:37:58;10.07;;;1.97;;
37529;SDS011;23374;52.758;6.872;2023-12-20T09:40:19;4.50;;;1.87;;
37529;SDS011;23374;52.758;6.872;2023-12-20T09:42:57;11.50;;;1.87;;
37529;SDS011;23374;52.758;6.872;2023-12-20T09:45:20;12.93;;;2.43;;
37529;SDS011;23374;52.758;6.872;2023-12-20T09:47:43;10.53;;;1.90;;
37529;SDS011;23374;52.758;6.872;2023-12-20T09:50:06;6.80;;;2.00;;
37529;SDS011;23374;52.758;6.872;2023-12-20T09:52:27;11.50;;;1.77;;
37529;SDS011;23374;52.758;6.872;2023-12-20T09:54:48;13.90;;;2.13;;
37529;SDS011;23374;52.758;6.872;2023-12-20T09:57:12;8.77;;;2.23;;
37529;SDS011;23374;52.758;6.872;2023-12-20T09:59:32;8.53;;;2.03;;
37529;SDS011;23374;52.758;6.872;2023-12-20T10:01:54;6.63;;;1.17;;
37529;SDS011;23374;52.758;6.872;2023-12-20T10:04:16;8.23;;;1.53;;
37529;SDS011;23374;52.758;6.872;2023-12-20T10:06:36;2.53;;;0.67;;
37529;SDS011;23374;52.758;6.872;2023-12-20T10:09:00;5.10;;;0.80;;
37529;SDS011;23374;52.758;6.872;2023-12-20T10:11:21;5.07;;;1.13;;
37529;SDS011;23374;52.758;6.872;2023-12-20T10:13:42;5.60;;;0.83;;
37529;SDS011;23374;52.758;6.872;2023-12-20T10:16:03;3.57;;;0.67;;
37529;SDS011;23374;52.758;6.872;2023-12-20T10:18:25;6.33;;;1.23;;
37529;SDS011;23374;52.758;6.872;2023-12-20T10:20:50;3.30;;;0.60;;
37529;SDS011;23374;52.758;6.872;2023-12-20T10:23:10;1.97;;;0.70;;
37529;SDS011;23374;52.758;6.872;2023-12-20T10:25:31;2.13;;;0.53;;
37529;SDS011;23374;52.758;6.872;2023-12-20T10:28:08;3.87;;;0.67;;
37529;SDS011;23374;52.758;6.872;2023-12-20T10:30:33;2.20;;;0.40;;
37529;SDS011;23374;52.758;6.872;2023-12-20T10:32:53;2.07;;;0.67;;
37529;SDS011;23374;52.758;6.872;2023-12-20T10:35:13;5.63;;;0.63;;
37529;SDS011;23374;52.758;6.872;2023-12-20T10:37:37;2.70;;;0.30;;
37529;SDS011;23374;52.758;6.872;2023-12-20T10:39:57;1.97;;;0.50;;
37529;SDS011;23374;52.758;6.872;2023-12-20T10:42:22;2.70;;;0.60;;
37529;SDS011;23374;52.758;6.872;2023-12-20T10:44:46;4.23;;;0.63;;
37529;SDS011;23374;52.758;6.872;2023-12-20T10:47:06;4.67;;;0.83;;
37529;SDS011;23374;52.758;6.872;2023-12-20T10:49:31;7.73;;;0.97;;
37529;SDS011;23374;52.758;6.872;2023-12-20T10:51:53;4.33;;;0.83;;
37529;SDS011;23374;52.758;6.872;2023-12-20T10:54:16;4.37;;;0.70;;
37529;SDS011;23374;52.758;6.872;2023-12-20T10:56:37;3.93;;;1.10;;
37529;SDS011;23374;52.758;6.872;2023-12-20T10:58:58;7.37;;;1.07;;
37529;SDS011;23374;52.758;6.872;2023-12-20T11:01:25;6.30;;;1.00;;
37529;SDS011;23374;52.758;6.872;2023-12-20T11:03:50;0.73;;;0.40;;
37529;SDS011;23374;52.758;6.872;2023-12-20T11:07:47;8.87;;;0.93;;
37529;SDS011;23374;52.758;6.872;2023-12-20T11:10:31;8.67;;;0.87;;
37529;SDS011;23374;52.758;6.872;2023-12-20T11:13:12;7.77;;;0.60;;
37529;SDS011;23374;52.758;6.872;2023-12-20T11:15:40;2.23;;;0.50;;
37529;SDS011;23374;52.758;6.872;2023-12-20T11:18:01;4.40;;;0.63;;
37529;SDS011;23374;52.758;6.872;2023-12-20T11:20:24;5.80;;;1.03;;
37529;SDS011;23374;52.758;6.872;2023-12-20T11:22:54;5.40;;;0.77;;
37529;SDS011;23374;52.758;6.872;2023-12-20T11:25:15;5.10;;;0.67;;
37529;SDS011;23374;52.758;6.872;2023-12-20T11:27:40;4.73;;;0.90;;
37529;SDS011;23374;52.758;6.872;2023-12-20T11:30:04;5.30;;;0.70;;
37529;SDS011;23374;52.758;6.872;2023-12-20T11:32:29;7.47;;;0.70;;
37529;SDS011;23374;52.758;6.872;2023-12-20T11:34:58;5.53;;;1.30;;
37529;SDS011;23374;52.758;6.872;2023-12-20T11:37:20;7.50;;;0.63;;
37529;SDS011;23374;52.758;6.872;2023-12-20T11:39:42;9.07;;;1.37;;
37529;SDS011;23374;52.758;6.872;2023-12-20T11:42:07;2.33;;;0.93;;
37529;SDS011;23374;52.758;6.872;2023-12-20T11:44:30;2.20;;;0.80;;
37529;SDS011;23374;52.758;6.872;2023-12-20T11:46:50;7.57;;;0.97;;
37529;SDS011;23374;52.758;6.872;2023-12-20T11:49:10;6.13;;;0.80;;
37529;SDS011;23374;52.758;6.872;2023-12-20T11:51:31;2.47;;;0.80;;
37529;SDS011;23374;52.758;6.872;2023-12-20T11:53:51;4.50;;;0.67;;
37529;SDS011;23374;52.758;6.872;2023-12-20T11:56:12;4.43;;;1.27;;
37529;SDS011;23374;52.758;6.872;2023-12-20T11:58:33;8.73;;;1.20;;
37529;SDS011;23374;52.758;6.872;2023-12-20T12:00:55;9.07;;;1.30;;
37529;SDS011;23374;52.758;6.872;2023-12-20T12:03:15;4.63;;;1.00;;
37529;SDS011;23374;52.758;6.872;2023-12-20T12:05:36;6.53;;;1.40;;
37529;SDS011;23374;52.758;6.872;2023-12-20T12:07:56;3.13;;;1.37;;
37529;SDS011;23374;52.758;6.872;2023-12-20T12:10:16;4.03;;;0.80;;
37529;SDS011;23374;52.758;6.872;2023-12-20T12:12:37;5.50;;;0.73;;
37529;SDS011;23374;52.758;6.872;2023-12-20T12:14:57;2.90;;;0.90;;
37529;SDS011;23374;52.758;6.872;2023-12-20T12:17:18;6.07;;;0.80;;
37529;SDS011;23374;52.758;6.872;2023-12-20T12:19:39;2.77;;;0.90;;
37529;SDS011;23374;52.758;6.872;2023-12-20T12:22:11;6.17;;;1.00;;
37529;SDS011;23374;52.758;6.872;2023-12-20T12:24:36;5.10;;;1.00;;
37529;SDS011;23374;52.758;6.872;2023-12-20T12:26:57;5.40;;;1.10;;
37529;SDS011;23374;52.758;6.872;2023-12-20T12:29:18;9.40;;;0.83;;
37529;SDS011;23374;52.758;6.872;2023-12-20T12:31:38;6.00;;;0.87;;
37529;SDS011;23374;52.758;6.872;2023-12-20T12:33:59;7.03;;;1.13;;
37529;SDS011;23374;52.758;6.872;2023-12-20T12:36:19;7.07;;;1.33;;
37529;SDS011;23374;52.758;6.872;2023-12-20T12:38:41;5.50;;;0.80;;
37529;SDS011;23374;52.758;6.872;2023-12-20T12:41:01;5.43;;;1.00;;
37529;SDS011;23374;52.758;6.872;2023-12-20T12:43:22;4.33;;;0.73;;
37529;SDS011;23374;52.758;6.872;2023-12-20T12:45:42;3.63;;;1.10;;
37529;SDS011;23374;52.758;6.872;2023-12-20T12:48:03;3.57;;;0.73;;
37529;SDS011;23374;52.758;6.872;2023-12-20T12:50:24;6.40;;;1.30;;
37529;SDS011;23374;52.758;6.872;2023-12-20T12:52:44;4.63;;;1.10;;
37529;SDS011;23374;52.758;6.872;2023-12-20T12:55:05;6.80;;;1.00;;
37529;SDS011;23374;52.758;6.872;2023-12-20T12:57:26;7.30;;;0.80;;
37529;SDS011;23374;52.758;6.872;2023-12-20T12:59:46;7.10;;;1.00;;
37529;SDS011;23374;52.758;6.872;2023-12-20T13:02:06;4.30;;;0.87;;
37529;SDS011;23374;52.758;6.872;2023-12-20T13:04:28;5.30;;;0.70;;
37529;SDS011;23374;52.758;6.872;2023-12-20T13:06:48;4.40;;;0.73;;
37529;SDS011;23374;52.758;6.872;2023-12-20T13:09:08;3.40;;;0.60;;
37529;SDS011;23374;52.758;6.872;2023-12-20T13:11:32;3.90;;;0.70;;
37529;SDS011;23374;52.758;6.872;2023-12-20T13:13:53;6.87;;;0.93;;
37529;SDS011;23374;52.758;6.872;2023-12-20T13:16:13;5.87;;;0.83;;
37529;SDS011;23374;52.758;6.872;2023-12-20T13:18:33;5.00;;;0.60;;
37529;SDS011;23374;52.758;6.872;2023-12-20T13:20:54;4.67;;;0.77;;
37529;SDS011;23374;52.758;6.872;2023-12-20T13:23:15;2.03;;;0.80;;
37529;SDS011;23374;52.758;6.872;2023-12-20T13:25:35;2.40;;;0.63;;
37529;SDS011;23374;52.758;6.872;2023-12-20T13:27:55;7.53;;;0.87;;
37529;SDS011;23374;52.758;6.872;2023-12-20T13:30:16;5.33;;;0.60;;
37529;SDS011;23374;52.758;6.872;2023-12-20T13:32:43;3.73;;;0.73;;
37529;SDS011;23374;52.758;6.872;2023-12-20T13:35:04;5.10;;;1.10;;
37529;SDS011;23374;52.758;6.872;2023-12-20T13:37:25;8.93;;;0.70;;
37529;SDS011;23374;52.758;6.872;2023-12-20T13:39:46;2.43;;;0.47;;
37529;SDS011;23374;52.758;6.872;2023-12-20T13:42:06;5.77;;;0.83;;
37529;SDS011;23374;52.758;6.872;2023-12-20T13:44:26;8.27;;;1.13;;
37529;SDS011;23374;52.758;6.872;2023-12-20T13:46:47;2.67;;;0.70;;
37529;SDS011;23374;52.758;6.872;2023-12-20T13:49:09;6.30;;;1.30;;
37529;SDS011;23374;52.758;6.872;2023-12-20T13:51:29;5.23;;;1.20;;
37529;SDS011;23374;52.758;6.872;2023-12-20T13:53:50;5.00;;;0.83;;
37529;SDS011;23374;52.758;6.872;2023-12-20T13:56:11;5.23;;;0.93;;
37529;SDS011;23374;52.758;6.872;2023-12-20T13:58:31;6.27;;;0.97;;
37529;SDS011;23374;52.758;6.872;2023-12-20T14:00:51;2.80;;;0.73;;
37529;SDS011;23374;52.758;6.872;2023-12-20T14:03:12;2.53;;;0.70;;
37529;SDS011;23374;52.758;6.872;2023-12-20T14:05:32;8.37;;;1.13;;
37529;SDS011;23374;52.758;6.872;2023-12-20T14:07:53;4.73;;;0.87;;